sensor_id;sensor_type;location;lat;lon;timestamp;temperature;humidity
23703;DHT22;12030;50.376;8.762;2023-06-14T00:00:14;13.00;99.90
23703;DHT22;12030;50.376;8.762;2023-06-14T00:02:40;13.00;99.90
23703;DHT22;12030;50.376;8.762;2023-06-14T00:05:07;13.00;99.90
23703;DHT22;12030;50.376;8.762;2023-06-14T00:07:37;13.00;99.90
23703;DHT22;12030;50.376;8.762;2023-06-14T00:10:10;13.00;99.90
23703;DHT22;12030;50.376;8.762;2023-06-14T00:12:38;13.00;99.90
23703;DHT22;12030;50.376;8.762;2023-06-14T00:15:05;13.30;99.90
23703;DHT22;12030;50.376;8.762;2023-06-14T00:17:31;13.30;99.90
23703;DHT22;12030;50.376;8.762;2023-06-14T00:19:57;13.50;99.90
23703;DHT22;12030;50.376;8.762;2023-06-14T00:22:23;13.50;99.90
23703;DHT22;12030;50.376;8.762;2023-06-14T00:24:54;13.60;99.90
23703;DHT22;12030;50.376;8.762;2023-06-14T00:27:19;13.60;99.90
23703;DHT22;12030;50.376;8.762;2023-06-14T00:29:45;13.50;99.90
23703;DHT22;12030;50.376;8.762;2023-06-14T00:32:10;13.50;99.90
23703;DHT22;12030;50.376;8.762;2023-06-14T00:34:36;13.40;99.90
23703;DHT22;12030;50.376;8.762;2023-06-14T00:37:02;13.30;99.90
23703;DHT22;12030;50.376;8.762;2023-06-14T00:39:27;13.30;99.90
23703;DHT22;12030;50.376;8.762;2023-06-14T00:41:53;13.20;99.90
23703;DHT22;12030;50.376;8.762;2023-06-14T00:44:19;13.10;99.90
23703;DHT22;12030;50.376;8.762;2023-06-14T00:46:46;13.00;99.90
23703;DHT22;12030;50.376;8.762;2023-06-14T00:49:14;12.90;99.90
23703;DHT22;12030;50.376;8.762;2023-06-14T00:51:40;12.90;99.90
23703;DHT22;12030;50.376;8.762;2023-06-14T00:54:06;12.90;99.90
23703;DHT22;12030;50.376;8.762;2023-06-14T00:56:32;12.90;99.90
23703;DHT22;12030;50.376;8.762;2023-06-14T00:58:57;12.80;99.90
23703;DHT22;12030;50.376;8.762;2023-06-14T01:01:23;12.90;99.90
23703;DHT22;12030;50.376;8.762;2023-06-14T01:03:49;13.00;99.90
23703;DHT22;12030;50.376;8.762;2023-06-14T01:06:57;13.10;99.90
23703;DHT22;12030;50.376;8.762;2023-06-14T01:12:52;13.30;99.90
23703;DHT22;12030;50.376;8.762;2023-06-14T01:15:21;13.40;99.90
23703;DHT22;12030;50.376;8.762;2023-06-14T01:17:49;13.50;99.90
23703;DHT22;12030;50.376;8.762;2023-06-14T01:20:17;13.50;99.90
23703;DHT22;12030;50.376;8.762;2023-06-14T01:22:52;13.50;99.90
23703;DHT22;12030;50.376;8.762;2023-06-14T01:25:19;13.40;99.90
23703;DHT22;12030;50.376;8.762;2023-06-14T01:28:15;13.40;99.90
23703;DHT22;12030;50.376;8.762;2023-06-14T01:30:44;13.30;99.90
23703;DHT22;12030;50.376;8.762;2023-06-14T01:33:19;13.30;99.90
23703;DHT22;12030;50.376;8.762;2023-06-14T01:35:50;13.20;99.90
23703;DHT22;12030;50.376;8.762;2023-06-14T01:38:17;13.10;99.90
23703;DHT22;12030;50.376;8.762;2023-06-14T01:40:44;13.10;99.90
23703;DHT22;12030;50.376;8.762;2023-06-14T01:43:14;13.10;99.90
23703;DHT22;12030;50.376;8.762;2023-06-14T01:45:41;13.10;99.90
23703;DHT22;12030;50.376;8.762;2023-06-14T01:48:11;13.10;99.90
23703;DHT22;12030;50.376;8.762;2023-06-14T01:50:36;13.00;99.90
23703;DHT22;12030;50.376;8.762;2023-06-14T01:53:03;13.00;99.90
23703;DHT22;12030;50.376;8.762;2023-06-14T01:55:29;13.00;99.90
23703;DHT22;12030;50.376;8.762;2023-06-14T01:57:54;13.00;99.90
23703;DHT22;12030;50.376;8.762;2023-06-14T02:00:21;12.90;99.90
23703;DHT22;12030;50.376;8.762;2023-06-14T02:02:46;12.90;99.90
23703;DHT22;12030;50.376;8.762;2023-06-14T02:05:12;12.80;99.90
23703;DHT22;12030;50.376;8.762;2023-06-14T02:07:38;12.80;99.90
23703;DHT22;12030;50.376;8.762;2023-06-14T02:10:05;12.80;99.90
23703;DHT22;12030;50.376;8.762;2023-06-14T02:12:31;12.70;99.90
23703;DHT22;12030;50.376;8.762;2023-06-14T02:14:56;12.70;99.90
23703;DHT22;12030;50.376;8.762;2023-06-14T02:17:23;12.70;99.90
23703;DHT22;12030;50.376;8.762;2023-06-14T02:19:49;12.70;99.90
23703;DHT22;12030;50.376;8.762;2023-06-14T02:22:16;12.70;99.90
23703;DHT22;12030;50.376;8.762;2023-06-14T02:24:42;12.70;99.90
23703;DHT22;12030;50.376;8.762;2023-06-14T02:27:08;12.80;99.90
23703;DHT22;12030;50.376;8.762;2023-06-14T02:29:35;12.80;99.90
23703;DHT22;12030;50.376;8.762;2023-06-14T02:32:01;12.80;99.90
23703;DHT22;12030;50.376;8.762;2023-06-14T02:34:27;12.90;99.90
23703;DHT22;12030;50.376;8.762;2023-06-14T02:36:52;12.90;99.90
23703;DHT22;12030;50.376;8.762;2023-06-14T02:39:18;12.80;99.90
23703;DHT22;12030;50.376;8.762;2023-06-14T02:41:46;12.80;99.90
23703;DHT22;12030;50.376;8.762;2023-06-14T02:44:13;12.80;99.90
23703;DHT22;12030;50.376;8.762;2023-06-14T02:46:39;12.70;99.90
23703;DHT22;12030;50.376;8.762;2023-06-14T02:49:05;12.80;99.90
23703;DHT22;12030;50.376;8.762;2023-06-14T02:51:30;12.80;99.90
23703;DHT22;12030;50.376;8.762;2023-06-14T02:53:56;12.80;99.90
23703;DHT22;12030;50.376;8.762;2023-06-14T02:56:21;12.80;99.90
23703;DHT22;12030;50.376;8.762;2023-06-14T02:58:48;12.90;99.90
23703;DHT22;12030;50.376;8.762;2023-06-14T03:01:14;13.00;99.90
23703;DHT22;12030;50.376;8.762;2023-06-14T03:03:39;13.00;99.90
23703;DHT22;12030;50.376;8.762;2023-06-14T03:06:05;13.00;99.90
23703;DHT22;12030;50.376;8.762;2023-06-14T03:08:31;13.00;99.90
23703;DHT22;12030;50.376;8.762;2023-06-14T03:11:03;13.00;99.90
23703;DHT22;12030;50.376;8.762;2023-06-14T03:13:30;13.00;99.90
23703;DHT22;12030;50.376;8.762;2023-06-14T03:15:57;13.00;99.90
23703;DHT22;12030;50.376;8.762;2023-06-14T03:18:23;13.10;99.90
23703;DHT22;12030;50.376;8.762;2023-06-14T03:20:48;13.10;99.90
23703;DHT22;12030;50.376;8.762;2023-06-14T03:23:14;13.20;99.90
23703;DHT22;12030;50.376;8.762;2023-06-14T03:25:39;13.20;99.90
23703;DHT22;12030;50.376;8.762;2023-06-14T03:28:07;13.20;99.90
23703;DHT22;12030;50.376;8.762;2023-06-14T03:30:33;13.30;99.90
23703;DHT22;12030;50.376;8.762;2023-06-14T03:32:58;13.20;99.90
23703;DHT22;12030;50.376;8.762;2023-06-14T03:35:27;13.30;99.90
23703;DHT22;12030;50.376;8.762;2023-06-14T03:37:53;13.20;99.90
23703;DHT22;12030;50.376;8.762;2023-06-14T03:40:19;13.30;99.90
23703;DHT22;12030;50.376;8.762;2023-06-14T03:42:47;13.20;99.90
23703;DHT22;12030;50.376;8.762;2023-06-14T03:45:13;13.20;99.90
23703;DHT22;12030;50.376;8.762;2023-06-14T03:47:38;13.20;99.90
23703;DHT22;12030;50.376;8.762;2023-06-14T03:50:04;13.30;99.90
23703;DHT22;12030;50.376;8.762;2023-06-14T03:52:31;13.30;99.90
23703;DHT22;12030;50.376;8.762;2023-06-14T03:54:58;13.30;99.90
23703;DHT22;12030;50.376;8.762;2023-06-14T03:57:25;13.40;99.90
23703;DHT22;12030;50.376;8.762;2023-06-14T03:59:51;13.40;99.90
23703;DHT22;12030;50.376;8.762;2023-06-14T04:02:17;13.30;99.90
23703;DHT22;12030;50.376;8.762;2023-06-14T04:04:43;13.30;99.90
23703;DHT22;12030;50.376;8.762;2023-06-14T04:07:14;13.30;99.90
23703;DHT22;12030;50.376;8.762;2023-06-14T04:09:40;13.30;99.90
23703;DHT22;12030;50.376;8.762;2023-06-14T04:12:07;13.40;99.90
23703;DHT22;12030;50.376;8.762;2023-06-14T04:14:34;13.40;99.90
23703;DHT22;12030;50.376;8.762;2023-06-14T04:17:00;13.40;99.90
23703;DHT22;12030;50.376;8.762;2023-06-14T04:19:26;13.40;99.90
23703;DHT22;12030;50.376;8.762;2023-06-14T04:21:51;13.40;99.90
23703;DHT22;12030;50.376;8.762;2023-06-14T04:24:17;13.40;99.90
23703;DHT22;12030;50.376;8.762;2023-06-14T04:26:43;13.40;99.90
23703;DHT22;12030;50.376;8.762;2023-06-14T04:29:13;13.50;99.90
23703;DHT22;12030;50.376;8.762;2023-06-14T04:31:43;13.50;99.90
23703;DHT22;12030;50.376;8.762;2023-06-14T04:34:10;13.50;99.90
23703;DHT22;12030;50.376;8.762;2023-06-14T04:36:41;13.60;99.90
23703;DHT22;12030;50.376;8.762;2023-06-14T04:39:08;13.60;99.90
23703;DHT22;12030;50.376;8.762;2023-06-14T04:41:34;13.70;99.90
23703;DHT22;12030;50.376;8.762;2023-06-14T04:44:01;13.80;99.90
23703;DHT22;12030;50.376;8.762;2023-06-14T04:46:30;13.80;99.90
23703;DHT22;12030;50.376;8.762;2023-06-14T04:48:57;13.90;99.90
23703;DHT22;12030;50.376;8.762;2023-06-14T04:51:23;13.90;99.90
23703;DHT22;12030;50.376;8.762;2023-06-14T04:53:55;14.00;99.90
23703;DHT22;12030;50.376;8.762;2023-06-14T04:56:22;14.10;99.90
23703;DHT22;12030;50.376;8.762;2023-06-14T04:58:48;14.20;99.90
23703;DHT22;12030;50.376;8.762;2023-06-14T05:01:14;14.30;99.90
23703;DHT22;12030;50.376;8.762;2023-06-14T05:03:39;14.30;99.90
23703;DHT22;12030;50.376;8.762;2023-06-14T05:06:06;14.40;99.90
23703;DHT22;12030;50.376;8.762;2023-06-14T05:08:32;14.50;99.90
23703;DHT22;12030;50.376;8.762;2023-06-14T05:10:57;14.50;99.90
23703;DHT22;12030;50.376;8.762;2023-06-14T05:13:23;14.70;99.90
23703;DHT22;12030;50.376;8.762;2023-06-14T05:15:48;14.70;99.90
23703;DHT22;12030;50.376;8.762;2023-06-14T05:18:14;14.80;99.90
23703;DHT22;12030;50.376;8.762;2023-06-14T05:20:40;15.00;99.90
23703;DHT22;12030;50.376;8.762;2023-06-14T05:23:07;15.10;99.90
23703;DHT22;12030;50.376;8.762;2023-06-14T05:25:32;15.20;99.90
23703;DHT22;12030;50.376;8.762;2023-06-14T05:27:58;15.30;99.90
23703;DHT22;12030;50.376;8.762;2023-06-14T05:30:23;15.50;99.90
23703;DHT22;12030;50.376;8.762;2023-06-14T05:32:49;15.70;99.90
23703;DHT22;12030;50.376;8.762;2023-06-14T05:35:15;15.80;99.90
23703;DHT22;12030;50.376;8.762;2023-06-14T05:37:41;15.90;99.90
23703;DHT22;12030;50.376;8.762;2023-06-14T05:40:07;16.10;99.90
23703;DHT22;12030;50.376;8.762;2023-06-14T05:42:34;16.20;99.90
23703;DHT22;12030;50.376;8.762;2023-06-14T05:44:59;16.30;99.90
23703;DHT22;12030;50.376;8.762;2023-06-14T05:47:25;16.40;99.90
23703;DHT22;12030;50.376;8.762;2023-06-14T05:49:53;16.50;99.90
23703;DHT22;12030;50.376;8.762;2023-06-14T05:52:19;16.60;99.90
23703;DHT22;12030;50.376;8.762;2023-06-14T05:54:44;16.70;99.90
23703;DHT22;12030;50.376;8.762;2023-06-14T05:57:10;16.80;99.90
23703;DHT22;12030;50.376;8.762;2023-06-14T05:59:36;16.90;99.90
23703;DHT22;12030;50.376;8.762;2023-06-14T06:02:01;17.00;99.90
23703;DHT22;12030;50.376;8.762;2023-06-14T06:04:27;17.00;99.80
23703;DHT22;12030;50.376;8.762;2023-06-14T06:06:52;17.10;99.80
23703;DHT22;12030;50.376;8.762;2023-06-14T06:09:18;17.30;99.90
23703;DHT22;12030;50.376;8.762;2023-06-14T06:11:44;17.30;99.50
23703;DHT22;12030;50.376;8.762;2023-06-14T06:14:10;19.30;99.90
23703;DHT22;12030;50.376;8.762;2023-06-14T06:16:35;17.40;98.80
23703;DHT22;12030;50.376;8.762;2023-06-14T06:19:01;17.50;98.50
23703;DHT22;12030;50.376;8.762;2023-06-14T06:21:26;17.50;98.40
23703;DHT22;12030;50.376;8.762;2023-06-14T06:23:52;17.70;98.50
23703;DHT22;12030;50.376;8.762;2023-06-14T06:26:17;17.70;98.50
23703;DHT22;12030;50.376;8.762;2023-06-14T06:28:43;17.80;98.20
23703;DHT22;12030;50.376;8.762;2023-06-14T06:31:08;17.80;98.10
23703;DHT22;12030;50.376;8.762;2023-06-14T06:33:34;17.90;97.80
23703;DHT22;12030;50.376;8.762;2023-06-14T06:36:02;17.90;97.70
23703;DHT22;12030;50.376;8.762;2023-06-14T06:38:27;18.10;98.10
23703;DHT22;12030;50.376;8.762;2023-06-14T06:40:53;18.10;97.40
23703;DHT22;12030;50.376;8.762;2023-06-14T06:43:19;18.20;97.10
23703;DHT22;12030;50.376;8.762;2023-06-14T06:45:45;18.30;96.80
23703;DHT22;12030;50.376;8.762;2023-06-14T06:48:10;18.30;96.90
23703;DHT22;12030;50.376;8.762;2023-06-14T06:50:36;18.40;96.90
23703;DHT22;12030;50.376;8.762;2023-06-14T06:53:02;18.50;96.90
23703;DHT22;12030;50.376;8.762;2023-06-14T06:55:28;18.60;96.90
23703;DHT22;12030;50.376;8.762;2023-06-14T06:57:53;18.60;96.10
23703;DHT22;12030;50.376;8.762;2023-06-14T07:00:20;18.60;96.20
23703;DHT22;12030;50.376;8.762;2023-06-14T07:02:46;18.70;96.30
23703;DHT22;12030;50.376;8.762;2023-06-14T07:05:12;18.90;95.90
23703;DHT22;12030;50.376;8.762;2023-06-14T07:07:37;18.90;95.60
23703;DHT22;12030;50.376;8.762;2023-06-14T07:10:04;18.90;95.50
23703;DHT22;12030;50.376;8.762;2023-06-14T07:12:31;19.00;95.30
23703;DHT22;12030;50.376;8.762;2023-06-14T07:14:59;19.10;95.10
23703;DHT22;12030;50.376;8.762;2023-06-14T07:17:25;19.20;95.20
23703;DHT22;12030;50.376;8.762;2023-06-14T07:19:50;19.40;95.10
23703;DHT22;12030;50.376;8.762;2023-06-14T07:22:16;19.50;94.40
23703;DHT22;12030;50.376;8.762;2023-06-14T07:24:42;19.50;94.50
23703;DHT22;12030;50.376;8.762;2023-06-14T07:27:08;19.60;93.70
23703;DHT22;12030;50.376;8.762;2023-06-14T07:29:34;19.70;93.60
23703;DHT22;12030;50.376;8.762;2023-06-14T07:32:00;19.70;93.60
23703;DHT22;12030;50.376;8.762;2023-06-14T07:34:25;19.70;93.40
23703;DHT22;12030;50.376;8.762;2023-06-14T07:36:51;19.80;93.20
23703;DHT22;12030;50.376;8.762;2023-06-14T07:39:17;19.70;93.00
23703;DHT22;12030;50.376;8.762;2023-06-14T07:41:42;19.70;92.90
23703;DHT22;12030;50.376;8.762;2023-06-14T07:44:08;19.60;93.00
23703;DHT22;12030;50.376;8.762;2023-06-14T07:46:33;19.70;93.30
23703;DHT22;12030;50.376;8.762;2023-06-14T07:48:59;19.80;93.00
23703;DHT22;12030;50.376;8.762;2023-06-14T07:51:25;19.70;92.30
23703;DHT22;12030;50.376;8.762;2023-06-14T07:53:51;19.80;92.20
23703;DHT22;12030;50.376;8.762;2023-06-14T07:56:16;19.80;92.00
23703;DHT22;12030;50.376;8.762;2023-06-14T07:58:42;20.10;92.20
23703;DHT22;12030;50.376;8.762;2023-06-14T08:01:08;20.00;92.00
23703;DHT22;12030;50.376;8.762;2023-06-14T08:03:34;20.20;91.50
23703;DHT22;12030;50.376;8.762;2023-06-14T08:06:00;20.30;90.20
23703;DHT22;12030;50.376;8.762;2023-06-14T08:08:26;20.30;90.80
23703;DHT22;12030;50.376;8.762;2023-06-14T08:10:52;20.20;89.10
23703;DHT22;12030;50.376;8.762;2023-06-14T08:13:17;20.20;90.20
23703;DHT22;12030;50.376;8.762;2023-06-14T08:15:43;20.10;89.30
23703;DHT22;12030;50.376;8.762;2023-06-14T08:18:09;20.30;89.60
23703;DHT22;12030;50.376;8.762;2023-06-14T08:20:35;20.30;89.40
23703;DHT22;12030;50.376;8.762;2023-06-14T08:23:02;20.40;87.30
23703;DHT22;12030;50.376;8.762;2023-06-14T08:25:27;20.60;87.00
23703;DHT22;12030;50.376;8.762;2023-06-14T08:27:53;20.70;85.30
23703;DHT22;12030;50.376;8.762;2023-06-14T08:30:18;20.80;86.50
23703;DHT22;12030;50.376;8.762;2023-06-14T08:32:44;20.70;85.00
23703;DHT22;12030;50.376;8.762;2023-06-14T08:35:10;20.60;85.60
23703;DHT22;12030;50.376;8.762;2023-06-14T08:37:39;20.70;86.20
23703;DHT22;12030;50.376;8.762;2023-06-14T08:40:18;20.60;85.20
23703;DHT22;12030;50.376;8.762;2023-06-14T08:42:45;20.80;84.30
23703;DHT22;12030;50.376;8.762;2023-06-14T08:45:12;20.90;85.20
23703;DHT22;12030;50.376;8.762;2023-06-14T08:47:37;21.00;84.80
23703;DHT22;12030;50.376;8.762;2023-06-14T08:50:03;20.90;84.00
23703;DHT22;12030;50.376;8.762;2023-06-14T08:52:32;20.90;81.60
23703;DHT22;12030;50.376;8.762;2023-06-14T08:54:59;21.10;81.80
23703;DHT22;12030;50.376;8.762;2023-06-14T08:57:26;21.30;84.30
23703;DHT22;12030;50.376;8.762;2023-06-14T08:59:56;21.40;81.80
23703;DHT22;12030;50.376;8.762;2023-06-14T09:02:22;21.20;80.30
23703;DHT22;12030;50.376;8.762;2023-06-14T09:04:48;21.50;87.20
23703;DHT22;12030;50.376;8.762;2023-06-14T09:07:15;21.70;83.90
23703;DHT22;12030;50.376;8.762;2023-06-14T09:09:41;21.70;82.70
23703;DHT22;12030;50.376;8.762;2023-06-14T09:12:16;21.80;83.10
23703;DHT22;12030;50.376;8.762;2023-06-14T09:14:42;21.40;80.60
23703;DHT22;12030;50.376;8.762;2023-06-14T09:17:08;21.50;81.60
23703;DHT22;12030;50.376;8.762;2023-06-14T09:19:34;21.40;83.20
23703;DHT22;12030;50.376;8.762;2023-06-14T09:22:00;21.30;81.90
23703;DHT22;12030;50.376;8.762;2023-06-14T09:24:26;21.40;82.50
23703;DHT22;12030;50.376;8.762;2023-06-14T09:26:51;21.70;87.50
23703;DHT22;12030;50.376;8.762;2023-06-14T09:29:18;21.90;81.50
23703;DHT22;12030;50.376;8.762;2023-06-14T09:31:46;22.10;80.50
23703;DHT22;12030;50.376;8.762;2023-06-14T09:34:11;22.20;80.40
23703;DHT22;12030;50.376;8.762;2023-06-14T09:36:39;22.40;79.40
23703;DHT22;12030;50.376;8.762;2023-06-14T09:39:06;22.60;82.60
23703;DHT22;12030;50.376;8.762;2023-06-14T09:41:33;22.90;83.20
23703;DHT22;12030;50.376;8.762;2023-06-14T09:43:59;22.90;78.40
23703;DHT22;12030;50.376;8.762;2023-06-14T09:46:28;22.70;78.70
23703;DHT22;12030;50.376;8.762;2023-06-14T09:48:55;22.60;77.60
23703;DHT22;12030;50.376;8.762;2023-06-14T09:51:22;22.50;78.90
23703;DHT22;12030;50.376;8.762;2023-06-14T09:53:49;22.10;77.70
23703;DHT22;12030;50.376;8.762;2023-06-14T09:56:23;21.90;77.90
23703;DHT22;12030;50.376;8.762;2023-06-14T09:58:54;22.10;78.80
23703;DHT22;12030;50.376;8.762;2023-06-14T10:01:21;22.00;78.20
23703;DHT22;12030;50.376;8.762;2023-06-14T10:03:50;21.70;78.20
23703;DHT22;12030;50.376;8.762;2023-06-14T10:06:21;21.70;80.10
23703;DHT22;12030;50.376;8.762;2023-06-14T10:08:52;21.70;78.90
23703;DHT22;12030;50.376;8.762;2023-06-14T10:11:17;22.20;80.00
23703;DHT22;12030;50.376;8.762;2023-06-14T10:13:43;22.80;82.20
23703;DHT22;12030;50.376;8.762;2023-06-14T10:16:16;23.00;76.70
23703;DHT22;12030;50.376;8.762;2023-06-14T10:18:49;23.00;75.50
23703;DHT22;12030;50.376;8.762;2023-06-14T10:24:07;23.30;77.30
23703;DHT22;12030;50.376;8.762;2023-06-14T10:26:33;23.80;76.20
23703;DHT22;12030;50.376;8.762;2023-06-14T10:29:07;23.70;75.10
23703;DHT22;12030;50.376;8.762;2023-06-14T10:31:42;23.70;74.00
23703;DHT22;12030;50.376;8.762;2023-06-14T10:34:08;23.90;75.80
23703;DHT22;12030;50.376;8.762;2023-06-14T10:36:34;24.00;77.30
23703;DHT22;12030;50.376;8.762;2023-06-14T10:39:16;23.70;77.10
23703;DHT22;12030;50.376;8.762;2023-06-14T10:41:53;23.70;75.70
23703;DHT22;12030;50.376;8.762;2023-06-14T10:46:49;23.10;74.00
23703;DHT22;12030;50.376;8.762;2023-06-14T10:49:43;23.10;74.60
23703;DHT22;12030;50.376;8.762;2023-06-14T10:52:14;23.60;79.60
23703;DHT22;12030;50.376;8.762;2023-06-14T10:55:04;23.40;74.30
23703;DHT22;12030;50.376;8.762;2023-06-14T10:57:30;23.70;74.70
23703;DHT22;12030;50.376;8.762;2023-06-14T10:59:58;20.80;70.10
23703;DHT22;12030;50.376;8.762;2023-06-14T11:04:51;23.50;73.20
23703;DHT22;12030;50.376;8.762;2023-06-14T11:10:41;23.80;74.10
23703;DHT22;12030;50.376;8.762;2023-06-14T11:13:07;23.90;74.60
23703;DHT22;12030;50.376;8.762;2023-06-14T11:15:35;23.80;72.50
23703;DHT22;12030;50.376;8.762;2023-06-14T11:18:05;24.00;72.50
23703;DHT22;12030;50.376;8.762;2023-06-14T11:20:32;24.00;71.10
23703;DHT22;12030;50.376;8.762;2023-06-14T11:22:57;24.00;71.70
23703;DHT22;12030;50.376;8.762;2023-06-14T11:25:24;23.80;71.60
23703;DHT22;12030;50.376;8.762;2023-06-14T11:27:50;23.80;74.70
23703;DHT22;12030;50.376;8.762;2023-06-14T11:30:16;23.60;71.10
23703;DHT22;12030;50.376;8.762;2023-06-14T11:32:42;23.70;73.80
23703;DHT22;12030;50.376;8.762;2023-06-14T11:35:08;23.60;71.70
23703;DHT22;12030;50.376;8.762;2023-06-14T11:37:36;23.70;75.40
23703;DHT22;12030;50.376;8.762;2023-06-14T11:40:02;24.10;72.60
23703;DHT22;12030;50.376;8.762;2023-06-14T11:42:34;24.50;71.50
23703;DHT22;12030;50.376;8.762;2023-06-14T11:45:00;24.70;69.90
23703;DHT22;12030;50.376;8.762;2023-06-14T11:47:34;24.90;70.30
23703;DHT22;12030;50.376;8.762;2023-06-14T11:50:01;25.40;71.00
23703;DHT22;12030;50.376;8.762;2023-06-14T11:52:27;25.70;72.70
23703;DHT22;12030;50.376;8.762;2023-06-14T11:54:53;25.60;67.70
23703;DHT22;12030;50.376;8.762;2023-06-14T11:57:19;25.50;66.00
23703;DHT22;12030;50.376;8.762;2023-06-14T11:59:46;25.40;67.50
23703;DHT22;12030;50.376;8.762;2023-06-14T12:02:19;25.20;67.20
23703;DHT22;12030;50.376;8.762;2023-06-14T12:04:47;25.30;67.70
23703;DHT22;12030;50.376;8.762;2023-06-14T12:07:17;25.00;67.90
23703;DHT22;12030;50.376;8.762;2023-06-14T12:12:23;24.60;73.50
23703;DHT22;12030;50.376;8.762;2023-06-14T12:14:53;25.00;68.50
23703;DHT22;12030;50.376;8.762;2023-06-14T12:17:19;24.50;68.10
23703;DHT22;12030;50.376;8.762;2023-06-14T12:19:46;24.70;70.80
23703;DHT22;12030;50.376;8.762;2023-06-14T12:22:15;24.40;69.40
23703;DHT22;12030;50.376;8.762;2023-06-14T12:24:44;24.50;70.80
23703;DHT22;12030;50.376;8.762;2023-06-14T12:27:10;24.70;69.90
23703;DHT22;12030;50.376;8.762;2023-06-14T12:29:41;25.10;72.60
23703;DHT22;12030;50.376;8.762;2023-06-14T12:32:10;25.70;71.20
23703;DHT22;12030;50.376;8.762;2023-06-14T12:34:36;26.30;70.40
23703;DHT22;12030;50.376;8.762;2023-06-14T12:37:02;26.40;68.40
23703;DHT22;12030;50.376;8.762;2023-06-14T12:39:29;26.10;69.50
23703;DHT22;12030;50.376;8.762;2023-06-14T12:41:57;25.80;68.10
23703;DHT22;12030;50.376;8.762;2023-06-14T12:44:23;25.70;69.90
23703;DHT22;12030;50.376;8.762;2023-06-14T12:46:48;25.40;68.50
23703;DHT22;12030;50.376;8.762;2023-06-14T12:49:17;25.20;69.70
23703;DHT22;12030;50.376;8.762;2023-06-14T12:51:42;25.30;70.20
23703;DHT22;12030;50.376;8.762;2023-06-14T12:54:08;25.30;70.50
23703;DHT22;12030;50.376;8.762;2023-06-14T12:56:33;26.00;70.50
23703;DHT22;12030;50.376;8.762;2023-06-14T12:58:59;26.70;67.00
23703;DHT22;12030;50.376;8.762;2023-06-14T13:01:25;27.50;70.10
23703;DHT22;12030;50.376;8.762;2023-06-14T13:03:51;27.30;65.00
23703;DHT22;12030;50.376;8.762;2023-06-14T13:06:21;27.30;64.90
23703;DHT22;12030;50.376;8.762;2023-06-14T13:08:47;27.00;65.40
23703;DHT22;12030;50.376;8.762;2023-06-14T13:11:12;27.00;64.40
23703;DHT22;12030;50.376;8.762;2023-06-14T13:13:38;27.20;64.20
23703;DHT22;12030;50.376;8.762;2023-06-14T13:16:03;27.10;63.00
23703;DHT22;12030;50.376;8.762;2023-06-14T13:18:29;26.00;62.90
23703;DHT22;12030;50.376;8.762;2023-06-14T13:20:55;26.90;61.80
23703;DHT22;12030;50.376;8.762;2023-06-14T13:23:20;26.70;66.40
23703;DHT22;12030;50.376;8.762;2023-06-14T13:25:46;26.70;64.20
23703;DHT22;12030;50.376;8.762;2023-06-14T13:28:12;26.40;63.90
23703;DHT22;12030;50.376;8.762;2023-06-14T13:30:37;26.10;63.00
23703;DHT22;12030;50.376;8.762;2023-06-14T13:33:03;26.20;63.10
23703;DHT22;12030;50.376;8.762;2023-06-14T13:35:28;26.00;64.10
23703;DHT22;12030;50.376;8.762;2023-06-14T13:37:54;26.50;64.70
23703;DHT22;12030;50.376;8.762;2023-06-14T13:40:20;27.10;61.30
23703;DHT22;12030;50.376;8.762;2023-06-14T13:42:46;27.80;61.60
23703;DHT22;12030;50.376;8.762;2023-06-14T13:45:13;28.00;58.70
23703;DHT22;12030;50.376;8.762;2023-06-14T13:47:39;28.00;58.90
23703;DHT22;12030;50.376;8.762;2023-06-14T13:50:05;27.50;58.00
23703;DHT22;12030;50.376;8.762;2023-06-14T13:52:30;27.70;59.20
23703;DHT22;12030;50.376;8.762;2023-06-14T13:54:56;27.70;59.20
23703;DHT22;12030;50.376;8.762;2023-06-14T13:57:22;26.80;59.00
23703;DHT22;12030;50.376;8.762;2023-06-14T13:59:48;26.90;64.20
23703;DHT22;12030;50.376;8.762;2023-06-14T14:02:13;26.60;64.90
23703;DHT22;12030;50.376;8.762;2023-06-14T14:04:40;26.50;64.40
23703;DHT22;12030;50.376;8.762;2023-06-14T14:07:06;26.30;62.80
23703;DHT22;12030;50.376;8.762;2023-06-14T14:09:33;26.20;63.80
23703;DHT22;12030;50.376;8.762;2023-06-14T14:12:00;25.80;63.50
23703;DHT22;12030;50.376;8.762;2023-06-14T14:14:27;26.20;64.10
23703;DHT22;12030;50.376;8.762;2023-06-14T14:16:53;27.10;62.90
23703;DHT22;12030;50.376;8.762;2023-06-14T14:19:23;27.50;62.30
23703;DHT22;12030;50.376;8.762;2023-06-14T14:21:49;27.50;60.40
23703;DHT22;12030;50.376;8.762;2023-06-14T14:24:14;28.20;60.40
23703;DHT22;12030;50.376;8.762;2023-06-14T14:26:41;28.40;59.60
23703;DHT22;12030;50.376;8.762;2023-06-14T14:29:06;28.80;58.30
23703;DHT22;12030;50.376;8.762;2023-06-14T14:31:32;29.30;58.80
23703;DHT22;12030;50.376;8.762;2023-06-14T14:33:57;28.90;59.10
23703;DHT22;12030;50.376;8.762;2023-06-14T14:36:23;28.10;57.70
23703;DHT22;12030;50.376;8.762;2023-06-14T14:38:48;27.80;58.50
23703;DHT22;12030;50.376;8.762;2023-06-14T14:41:14;28.20;59.80
23703;DHT22;12030;50.376;8.762;2023-06-14T14:43:40;28.20;57.90
23703;DHT22;12030;50.376;8.762;2023-06-14T14:46:05;28.40;59.20
23703;DHT22;12030;50.376;8.762;2023-06-14T14:48:31;28.50;58.40
23703;DHT22;12030;50.376;8.762;2023-06-14T14:50:57;28.30;57.40
23703;DHT22;12030;50.376;8.762;2023-06-14T14:53:22;27.80;58.20
23703;DHT22;12030;50.376;8.762;2023-06-14T14:55:48;27.50;57.80
23703;DHT22;12030;50.376;8.762;2023-06-14T14:58:14;27.50;57.50
23703;DHT22;12030;50.376;8.762;2023-06-14T15:00:44;28.00;58.90
23703;DHT22;12030;50.376;8.762;2023-06-14T15:03:10;28.20;58.60
23703;DHT22;12030;50.376;8.762;2023-06-14T15:05:35;28.10;58.00
23703;DHT22;12030;50.376;8.762;2023-06-14T15:08:02;28.30;57.40
23703;DHT22;12030;50.376;8.762;2023-06-14T15:10:28;28.50;58.60
23703;DHT22;12030;50.376;8.762;2023-06-14T15:12:53;28.40;57.40
23703;DHT22;12030;50.376;8.762;2023-06-14T15:15:19;28.20;58.60
23703;DHT22;12030;50.376;8.762;2023-06-14T15:17:45;27.60;58.00
23703;DHT22;12030;50.376;8.762;2023-06-14T15:20:11;27.30;59.10
23703;DHT22;12030;50.376;8.762;2023-06-14T15:22:38;27.10;59.40
23703;DHT22;12030;50.376;8.762;2023-06-14T15:25:03;27.80;62.20
23703;DHT22;12030;50.376;8.762;2023-06-14T15:27:29;28.30;57.40
23703;DHT22;12030;50.376;8.762;2023-06-14T15:29:55;28.60;58.30
23703;DHT22;12030;50.376;8.762;2023-06-14T15:32:20;28.70;59.40
23703;DHT22;12030;50.376;8.762;2023-06-14T15:34:46;28.70;56.20
23703;DHT22;12030;50.376;8.762;2023-06-14T15:37:12;28.50;56.50
23703;DHT22;12030;50.376;8.762;2023-06-14T15:39:37;28.00;56.40
23703;DHT22;12030;50.376;8.762;2023-06-14T15:42:04;27.70;57.00
23703;DHT22;12030;50.376;8.762;2023-06-14T15:44:31;27.30;58.10